Time;durP1;ratioP1;P1;durP2;ratioP2;P2;SDS_P1;SDS_P2;PMS_P1;PMS_P2;Temp;Humidity;BMP_temperature;BMP_pressure;BME280_temperature;BME280_humidity;BME280_pressure;Samples;Min_cycle;Max_cycle;Signal;HPM_P1;HPM_P2
2022/11/06 00:00:12;;;;;;;;;;;4.90;99.90;;;;;;5053885;28;19927;-74
2022/11/06 00:02:37;;;;;;;;;;;4.80;99.90;;;;;;5068791;28;19989;-74
2022/11/06 00:07:48;;;;;;;;;;;4.70;99.90;;;;;;5057161;28;19970;-73
2022/11/06 00:10:14;;;;;;;;;;;4.70;99.90;;;;;;5069068;28;19916;-73
2022/11/06 00:12:40;;;;;;;;;;;4.70;99.90;;;;;;5068468;28;20622;-74
2022/11/06 00:15:05;;;;;;;;;;;4.60;99.90;;;;;;5068012;28;20136;-74
2022/11/06 00:17:31;;;;;;;;;;;4.60;99.90;;;;;;5068091;28;20007;-74
2022/11/06 00:19:57;;;;;;;;;;;4.60;99.90;;;;;;5068274;28;20414;-73
2022/11/06 00:22:22;;;;;;;;;;;4.60;99.90;;;;;;5064578;28;19917;-72
2022/11/06 00:24:48;;;;;;;;;;;4.60;99.90;;;;;;5068345;28;19917;-74
2022/11/06 00:27:14;;;;;;;;;;;4.60;99.90;;;;;;5063179;28;19927;-74
2022/11/06 00:29:39;;;;;;;;;;;4.50;99.90;;;;;;5067928;28;19924;-73
2022/11/06 00:32:05;;;;;;;;;;;4.60;99.90;;;;;;5063947;28;19912;-73
2022/11/06 00:34:31;;;;;;;;;;;4.50;99.90;;;;;;5068110;28;20532;-73
2022/11/06 00:36:56;;;;;;;;;;;4.50;99.90;;;;;;5065068;28;19916;-73
2022/11/06 00:39:22;;;;;;;;;;;4.50;99.90;;;;;;5067671;28;19923;-73
2022/11/06 00:41:47;;;;;;;;;;;4.40;99.90;;;;;;5066991;28;19999;-73
2022/11/06 00:44:13;;;;;;;;;;;4.30;99.90;;;;;;5067916;28;20002;-73
2022/11/06 00:46:38;;;;;;;;;;;4.40;99.90;;;;;;5067681;28;19916;-73
2022/11/06 00:49:04;;;;;;;;;;;4.40;99.90;;;;;;5067412;28;19920;-72
2022/11/06 00:51:31;;;;;;;;;;;4.40;99.90;;;;;;5066594;28;19913;-73
2022/11/06 00:53:58;;;;;;;;;;;4.40;99.90;;;;;;5066926;28;20397;-73
2022/11/06 00:56:24;;;;;;;;;;;4.30;99.90;;;;;;5068085;28;20303;-71
2022/11/06 00:58:50;;;;;;;;;;;4.30;99.90;;;;;;5066530;28;19916;-73
2022/11/06 01:01:15;;;;;;;;;;;4.30;99.90;;;;;;5066101;28;20306;-73
2022/11/06 01:03:42;;;;;;;;;;;4.30;99.90;;;;;;5065625;28;20018;-73
2022/11/06 01:06:12;;;;;;;;;;;4.30;99.90;;;;;;5066276;28;19928;-73
2022/11/06 01:08:39;;;;;;;;;;;4.30;99.90;;;;;;5066657;28;20450;-73
2022/11/06 01:11:06;;;;;;;;;;;4.20;99.90;;;;;;5067811;28;19923;-73
2022/11/06 01:13:31;;;;;;;;;;;4.20;99.90;;;;;;5067481;28;20330;-73
2022/11/06 01:15:57;;;;;;;;;;;4.10;99.90;;;;;;5067046;28;19924;-73
2022/11/06 01:18:22;;;;;;;;;;;4.10;99.90;;;;;;5067810;28;19917;-73
2022/11/06 01:20:48;;;;;;;;;;;4.10;99.90;;;;;;5063471;28;19916;-73
2022/11/06 01:23:13;;;;;;;;;;;4.10;99.90;;;;;;5065979;28;19927;-74
2022/11/06 01:25:39;;;;;;;;;;;4.00;99.90;;;;;;5086338;28;19912;-74
2022/11/06 01:28:04;;;;;;;;;;;4.00;99.90;;;;;;5097151;28;20490;-74
2022/11/06 01:30:30;;;;;;;;;;;4.00;99.90;;;;;;5067481;28;20371;-73
2022/11/06 01:32:56;;;;;;;;;;;4.00;99.90;;;;;;5068165;28;20452;-74
2022/11/06 01:35:21;;;;;;;;;;;4.00;99.90;;;;;;5067494;28;19963;-73
2022/11/06 01:37:47;;;;;;;;;;;4.00;99.90;;;;;;5066013;28;19920;-73
2022/11/06 01:40:12;;;;;;;;;;;4.00;99.90;;;;;;5066985;28;19916;-74
2022/11/06 01:42:38;;;;;;;;;;;4.00;99.90;;;;;;5056455;28;19975;-72
2022/11/06 01:45:17;;;;;;;;;;;4.10;99.90;;;;;;5064095;28;20023;-73
2022/11/06 01:47:43;;;;;;;;;;;4.10;99.90;;;;;;5063261;28;19975;-73
2022/11/06 01:50:11;;;;;;;;;;;4.10;99.90;;;;;;5065751;28;19963;-72
2022/11/06 01:52:37;;;;;;;;;;;4.10;99.90;;;;;;5066066;28;19931;-73
2022/11/06 01:55:11;;;;;;;;;;;4.00;99.90;;;;;;5065781;28;19986;-72
2022/11/06 01:57:37;;;;;;;;;;;4.00;99.90;;;;;;5065279;28;20007;-73
2022/11/06 02:00:04;;;;;;;;;;;3.90;99.90;;;;;;5065779;28;19917;-72
2022/11/06 02:02:29;;;;;;;;;;;3.90;99.90;;;;;;5066122;28;19916;-73
2022/11/06 02:04:55;;;;;;;;;;;3.90;99.90;;;;;;5067376;28;19946;-72
2022/11/06 02:07:20;;;;;;;;;;;4.00;99.90;;;;;;5064784;28;20642;-73
2022/11/06 02:09:46;;;;;;;;;;;3.90;99.90;;;;;;5065648;28;19962;-73
2022/11/06 02:12:20;;;;;;;;;;;3.90;99.90;;;;;;5066875;28;19913;-73
2022/11/06 02:15:00;;;;;;;;;;;3.80;99.90;;;;;;5063677;28;20023;-72
2022/11/06 02:17:35;;;;;;;;;;;3.70;99.90;;;;;;5064920;28;19916;-73
2022/11/06 02:20:19;;;;;;;;;;;3.70;99.90;;;;;;5066378;28;20055;-72
2022/11/06 02:22:54;;;;;;;;;;;3.70;99.90;;;;;;5080706;28;19920;-72
2022/11/06 02:25:25;;;;;;;;;;;3.80;99.90;;;;;;5066527;28;19916;-73
2022/11/06 02:27:56;;;;;;;;;;;3.70;99.90;;;;;;5066634;28;19920;-73
2022/11/06 02:30:21;;;;;;;;;;;3.70;99.90;;;;;;5064827;28;20003;-73
2022/11/06 02:32:55;;;;;;;;;;;3.70;99.90;;;;;;5065651;28;20003;-73
2022/11/06 02:35:21;;;;;;;;;;;3.80;99.90;;;;;;5065894;28;19924;-72
2022/11/06 02:37:49;;;;;;;;;;;3.80;99.90;;;;;;5058148;28;20462;-73
2022/11/06 02:40:16;;;;;;;;;;;3.80;99.90;;;;;;5092000;28;19995;-73
2022/11/06 02:42:44;;;;;;;;;;;3.80;99.90;;;;;;5065782;28;19918;-72
2022/11/06 02:45:12;;;;;;;;;;;3.80;99.90;;;;;;5065336;28;19948;-73
2022/11/06 02:47:38;;;;;;;;;;;3.80;99.90;;;;;;5066080;28;19928;-73
2022/11/06 02:50:04;;;;;;;;;;;3.80;99.90;;;;;;5064550;28;19917;-73
2022/11/06 02:52:32;;;;;;;;;;;3.80;99.90;;;;;;5062115;28;20362;-73
2022/11/06 02:55:07;;;;;;;;;;;3.70;99.90;;;;;;5062679;28;19916;-73
2022/11/06 02:57:35;;;;;;;;;;;3.80;99.90;;;;;;5067184;28;19922;-73
2022/11/06 03:00:04;;;;;;;;;;;3.90;99.90;;;;;;5068749;28;19959;-73
2022/11/06 03:02:33;;;;;;;;;;;3.90;99.90;;;;;;5069528;28;19916;-73
2022/11/06 03:05:07;;;;;;;;;;;3.90;99.90;;;;;;5065024;28;19924;-73
2022/11/06 03:07:43;;;;;;;;;;;3.90;99.90;;;;;;5066639;28;19924;-73
2022/11/06 03:10:09;;;;;;;;;;;4.00;99.90;;;;;;5069212;28;20714;-73
2022/11/06 03:12:47;;;;;;;;;;;4.00;99.90;;;;;;5070211;28;19912;-73
2022/11/06 03:15:21;;;;;;;;;;;3.90;99.90;;;;;;5070352;28;19920;-72
2022/11/06 03:18:05;;;;;;;;;;;3.80;99.90;;;;;;5064851;28;19923;-73
2022/11/06 03:20:39;;;;;;;;;;;3.70;99.90;;;;;;5065777;28;20355;-73
2022/11/06 03:23:13;;;;;;;;;;;3.80;99.90;;;;;;5068566;28;19921;-73
2022/11/06 03:25:59;;;;;;;;;;;3.80;99.90;;;;;;5069473;28;19927;-74
2022/11/06 03:28:37;;;;;;;;;;;3.90;99.90;;;;;;5069969;28;20343;-74
2022/11/06 03:31:08;;;;;;;;;;;4.00;99.90;;;;;;5069294;28;19917;-74
2022/11/06 03:33:34;;;;;;;;;;;3.90;99.90;;;;;;5068296;28;19920;-73
2022/11/06 03:36:02;;;;;;;;;;;3.90;99.90;;;;;;5060361;28;19920;-74
2022/11/06 03:38:33;;;;;;;;;;;3.90;99.90;;;;;;5066664;28;19916;-73
2022/11/06 03:41:01;;;;;;;;;;;3.90;99.90;;;;;;5068572;28;19916;-74
2022/11/06 03:43:29;;;;;;;;;;;3.90;99.90;;;;;;5068058;28;19917;-73
2022/11/06 03:45:55;;;;;;;;;;;3.90;99.90;;;;;;5068682;28;19973;-73
2022/11/06 03:48:33;;;;;;;;;;;3.90;99.90;;;;;;5068545;28;19928;-74
2022/11/06 03:51:04;;;;;;;;;;;3.80;99.90;;;;;;5067775;28;20526;-73
2022/11/06 03:53:37;;;;;;;;;;;3.90;99.90;;;;;;5068582;28;19939;-74
2022/11/06 03:56:15;;;;;;;;;;;3.80;99.90;;;;;;5064193;28;19969;-73
2022/11/06 03:58:44;;;;;;;;;;;3.70;99.90;;;;;;5069325;28;20027;-73
2022/11/06 04:01:10;;;;;;;;;;;3.70;99.90;;;;;;5066319;28;20463;-73
2022/11/06 04:04:05;;;;;;;;;;;3.60;99.90;;;;;;5068144;28;19938;-72
2022/11/06 04:06:34;;;;;;;;;;;3.60;99.90;;;;;;5028978;28;19921;-73
2022/11/06 04:14:32;;;;;;;;;;;3.40;99.90;;;;;;5028735;28;20299;-74
2022/11/06 04:17:00;;;;;;;;;;;3.50;99.90;;;;;;5027517;28;20005;-75
2022/11/06 04:19:25;;;;;;;;;;;3.50;99.90;;;;;;5053589;28;19924;-73
2022/11/06 04:21:51;;;;;;;;;;;3.40;99.90;;;;;;5027876;28;19917;-74
2022/11/06 04:27:12;;;;;;;;;;;3.50;99.90;;;;;;5025800;28;19928;-73
2022/11/06 04:29:53;;;;;;;;;;;3.50;99.90;;;;;;5026972;28;19917;-74
2022/11/06 04:32:37;;;;;;;;;;;3.50;99.90;;;;;;5025759;28;20003;-74
2022/11/06 04:35:29;;;;;;;;;;;3.50;99.90;;;;;;5029102;28;19917;-72
2022/11/06 04:38:11;;;;;;;;;;;3.40;99.90;;;;;;5026794;28;19921;-73
2022/11/06 04:40:40;;;;;;;;;;;3.40;99.90;;;;;;5027895;28;19917;-74
2022/11/06 04:43:10;;;;;;;;;;;3.40;99.90;;;;;;5024039;28;19963;-74
2022/11/06 04:45:38;;;;;;;;;;;3.30;99.90;;;;;;5028336;28;20368;-74
2022/11/06 04:48:05;;;;;;;;;;;3.30;99.90;;;;;;5026495;28;19972;-73
2022/11/06 04:50:33;;;;;;;;;;;3.20;99.90;;;;;;5028202;28;20533;-74
2022/11/06 04:52:59;;;;;;;;;;;3.20;99.90;;;;;;5046137;28;19943;-74
2022/11/06 04:55:25;;;;;;;;;;;3.10;99.90;;;;;;5028380;28;19921;-73
2022/11/06 04:57:50;;;;;;;;;;;3.20;99.90;;;;;;5018921;28;20372;-73
2022/11/06 05:00:16;;;;;;;;;;;3.20;99.90;;;;;;5052756;28;21886;-73
2022/11/06 05:02:42;;;;;;;;;;;3.20;99.90;;;;;;5025965;28;20339;-74
2022/11/06 05:05:07;;;;;;;;;;;3.20;99.90;;;;;;5041867;28;20755;-74
2022/11/06 05:07:33;;;;;;;;;;;3.10;99.90;;;;;;5067900;28;20332;-75
2022/11/06 05:09:58;;;;;;;;;;;3.20;99.90;;;;;;5068363;28;19995;-73
2022/11/06 05:12:24;;;;;;;;;;;3.10;99.90;;;;;;5061961;28;20538;-73
2022/11/06 05:14:49;;;;;;;;;;;3.10;99.90;;;;;;5067947;28;20656;-74
2022/11/06 05:17:15;;;;;;;;;;;3.00;99.90;;;;;;5066119;28;20186;-73
2022/11/06 05:19:41;;;;;;;;;;;3.00;99.90;;;;;;5065640;28;20143;-74
2022/11/06 05:24:52;;;;;;;;;;;3.00;99.90;;;;;;5066106;28;19931;-73
2022/11/06 05:27:17;;;;;;;;;;;3.00;99.90;;;;;;5067421;28;19920;-73
2022/11/06 05:29:43;;;;;;;;;;;3.00;99.90;;;;;;5067109;28;19916;-73
2022/11/06 05:32:09;;;;;;;;;;;3.10;99.90;;;;;;5066210;28;19963;-73
2022/11/06 05:34:34;;;;;;;;;;;2.90;99.90;;;;;;5067615;28;19927;-74
2022/11/06 05:37:00;;;;;;;;;;;2.90;99.90;;;;;;5063914;28;19952;-73
2022/11/06 05:39:25;;;;;;;;;;;2.80;99.90;;;;;;5067802;28;19970;-74
2022/11/06 05:41:51;;;;;;;;;;;2.90;99.90;;;;;;5067795;28;19916;-74
2022/11/06 05:44:16;;;;;;;;;;;2.90;99.90;;;;;;5067769;28;19930;-74
2022/11/06 05:46:42;;;;;;;;;;;2.70;99.90;;;;;;5066127;28;20399;-74
2022/11/06 05:49:08;;;;;;;;;;;2.80;99.90;;;;;;5065996;28;19940;-74
2022/11/06 05:51:33;;;;;;;;;;;2.70;99.90;;;;;;5065663;28;19917;-74
2022/11/06 05:53:59;;;;;;;;;;;2.70;99.90;;;;;;5066201;28;19924;-74
2022/11/06 05:56:24;;;;;;;;;;;2.70;99.90;;;;;;5067147;28;19917;-74
2022/11/06 05:58:50;;;;;;;;;;;2.80;99.90;;;;;;5065160;28;19917;-73
2022/11/06 06:01:15;;;;;;;;;;;2.70;99.90;;;;;;5066835;28;19927;-74
2022/11/06 06:03:41;;;;;;;;;;;2.70;99.90;;;;;;5065965;28;19927;-73
2022/11/06 06:06:06;;;;;;;;;;;2.80;99.90;;;;;;5067053;28;19931;-73
2022/11/06 06:08:32;;;;;;;;;;;2.80;99.90;;;;;;5066306;28;19924;-73
2022/11/06 06:10:57;;;;;;;;;;;2.80;99.90;;;;;;5066850;28;19920;-74
2022/11/06 06:13:23;;;;;;;;;;;2.70;99.90;;;;;;5065717;28;19923;-74
2022/11/06 06:15:49;;;;;;;;;;;2.80;99.90;;;;;;5065374;28;19917;-75
2022/11/06 06:18:14;;;;;;;;;;;2.80;99.90;;;;;;5066720;28;19921;-74
2022/11/06 06:20:40;;;;;;;;;;;2.80;99.90;;;;;;5060787;28;19924;-73
2022/11/06 06:23:05;;;;;;;;;;;2.80;99.90;;;;;;5065065;28;19978;-74
2022/11/06 06:25:31;;;;;;;;;;;2.80;99.90;;;;;;5067132;28;19995;-75
2022/11/06 06:27:57;;;;;;;;;;;2.80;99.90;;;;;;5065474;28;19931;-76
2022/11/06 06:30:22;;;;;;;;;;;2.70;99.90;;;;;;5070728;28;19923;-76
2022/11/06 06:32:48;;;;;;;;;;;2.60;99.90;;;;;;5069066;28;19951;-75
2022/11/06 06:35:14;;;;;;;;;;;2.70;99.90;;;;;;5070473;28;19916;-76
2022/11/06 06:37:39;;;;;;;;;;;2.60;99.90;;;;;;5067703;28;19916;-76
2022/11/06 06:40:05;;;;;;;;;;;2.60;99.90;;;;;;5064686;28;19917;-75
2022/11/06 06:42:31;;;;;;;;;;;2.70;99.90;;;;;;5070730;28;19916;-75
2022/11/06 06:44:56;;;;;;;;;;;2.60;99.90;;;;;;5062904;28;19917;-75
2022/11/06 06:47:22;;;;;;;;;;;2.70;99.90;;;;;;5071568;28;19959;-75
2022/11/06 06:49:48;;;;;;;;;;;2.80;99.90;;;;;;5066966;28;19951;-75
2022/11/06 06:52:13;;;;;;;;;;;2.80;99.90;;;;;;5064386;28;19924;-75
2022/11/06 06:54:39;;;;;;;;;;;2.70;99.90;;;;;;5070735;28;19916;-76
2022/11/06 06:57:06;;;;;;;;;;;2.80;99.90;;;;;;5070134;28;20010;-76
2022/11/06 06:59:32;;;;;;;;;;;2.90;99.90;;;;;;5069621;28;19984;-76
2022/11/06 07:01:57;;;;;;;;;;;3.10;99.90;;;;;;5067743;28;20448;-76
2022/11/06 07:04:23;;;;;;;;;;;3.40;99.90;;;;;;5069738;28;20403;-77
2022/11/06 07:06:48;;;;;;;;;;;3.80;99.90;;;;;;5100551;28;19927;-75
2022/11/06 07:09:14;;;;;;;;;;;4.20;99.90;;;;;;5067508;28;19964;-75
2022/11/06 07:11:40;;;;;;;;;;;4.40;99.90;;;;;;5068424;28;19920;-75
2022/11/06 07:14:05;;;;;;;;;;;4.60;99.90;;;;;;5068894;28;19916;-73
2022/11/06 07:16:31;;;;;;;;;;;5.00;99.90;;;;;;5063908;28;19920;-74
2022/11/06 07:18:57;;;;;;;;;;;5.00;99.90;;;;;;5069112;28;19913;-74
2022/11/06 07:21:22;;;;;;;;;;;5.00;99.90;;;;;;5064255;28;20415;-74
2022/11/06 07:23:48;;;;;;;;;;;4.90;99.90;;;;;;5068148;28;19916;-75
2022/11/06 07:26:13;;;;;;;;;;;4.90;99.90;;;;;;5070231;28;20485;-75
2022/11/06 07:28:39;;;;;;;;;;;5.40;99.90;;;;;;5059185;28;19917;-75
2022/11/06 07:31:05;;;;;;;;;;;5.50;99.90;;;;;;5065628;28;19912;-75
2022/11/06 07:33:31;;;;;;;;;;;5.70;99.90;;;;;;5063260;28;19916;-75
2022/11/06 07:36:08;;;;;;;;;;;6.10;99.90;;;;;;5070525;28;20710;-75
2022/11/06 07:38:34;;;;;;;;;;;6.60;99.90;;;;;;5066396;28;19912;-75
2022/11/06 07:41:00;;;;;;;;;;;6.70;99.90;;;;;;5067432;28;20435;-75
2022/11/06 07:43:26;;;;;;;;;;;6.40;99.90;;;;;;5064378;28;19917;-75
2022/11/06 07:45:52;;;;;;;;;;;7.00;99.90;;;;;;5050878;28;20438;-75
2022/11/06 07:48:17;;;;;;;;;;;7.00;99.90;;;;;;5068405;28;19954;-75
2022/11/06 07:50:43;;;;;;;;;;;6.90;99.90;;;;;;5069851;28;19948;-75
2022/11/06 07:53:08;;;;;;;;;;;6.90;99.90;;;;;;5069257;28;19999;-74
2022/11/06 07:55:34;;;;;;;;;;;7.00;99.90;;;;;;5069749;28;19930;-75
2022/11/06 07:57:59;;;;;;;;;;;7.30;99.90;;;;;;5069679;28;19912;-74
2022/11/06 08:00:25;;;;;;;;;;;7.60;99.90;;;;;;5069830;28;20016;-75
2022/11/06 08:02:51;;;;;;;;;;;7.50;99.90;;;;;;5066930;28;19952;-73
2022/11/06 08:05:17;;;;;;;;;;;6.90;99.90;;;;;;5059081;28;19989;-74
2022/11/06 08:07:42;;;;;;;;;;;6.60;99.90;;;;;;5069869;28;19928;-73
2022/11/06 08:10:08;;;;;;;;;;;7.30;99.90;;;;;;5069730;28;19916;-74
2022/11/06 08:12:33;;;;;;;;;;;8.00;99.90;;;;;;5072487;28;19962;-74
2022/11/06 08:14:59;;;;;;;;;;;8.30;99.90;;;;;;5058756;28;19963;-73
2022/11/06 08:17:25;;;;;;;;;;;8.80;99.90;;;;;;5068899;28;19908;-74
2022/11/06 08:19:51;;;;;;;;;;;8.20;99.90;;;;;;5062330;28;19939;-73
2022/11/06 08:22:17;;;;;;;;;;;8.80;99.90;;;;;;5068400;28;19912;-74
2022/11/06 08:24:43;;;;;;;;;;;9.20;99.90;;;;;;5076773;28;19997;-73
2022/11/06 08:27:08;;;;;;;;;;;9.20;99.90;;;;;;5068761;28;19948;-74
2022/11/06 08:29:34;;;;;;;;;;;9.20;99.90;;;;;;5067661;28;20794;-74
2022/11/06 08:32:00;;;;;;;;;;;8.80;99.90;;;;;;5068228;28;20489;-73
2022/11/06 08:34:25;;;;;;;;;;;8.00;99.90;;;;;;5057469;28;19913;-73
2022/11/06 08:36:51;;;;;;;;;;;7.50;99.90;;;;;;5062239;28;19920;-73
2022/11/06 08:39:16;;;;;;;;;;;7.50;99.90;;;;;;5068281;28;19916;-74
2022/11/06 08:41:43;;;;;;;;;;;7.90;99.90;;;;;;5067140;28;19912;-74
2022/11/06 08:44:09;;;;;;;;;;;8.70;99.90;;;;;;5067691;28;19916;-74
2022/11/06 08:46:34;;;;;;;;;;;8.90;99.90;;;;;;5065132;28;20392;-74
2022/11/06 08:49:00;;;;;;;;;;;8.80;99.90;;;;;;5063050;28;19928;-74
2022/11/06 08:51:25;;;;;;;;;;;9.00;99.90;;;;;;5050427;28;20008;-74
2022/11/06 08:53:51;;;;;;;;;;;9.20;99.90;;;;;;5076765;28;19919;-74
2022/11/06 08:56:17;;;;;;;;;;;9.30;99.90;;;;;;5049749;28;20007;-74
2022/11/06 08:58:42;;;;;;;;;;;9.80;99.90;;;;;;5051412;28;19916;-74
2022/11/06 09:01:08;;;;;;;;;;;9.30;99.90;;;;;;5058693;28;20019;-73
2022/11/06 09:03:33;;;;;;;;;;;9.20;99.90;;;;;;5054053;28;20460;-74
2022/11/06 09:05:59;;;;;;;;;;;9.10;99.90;;;;;;5065772;28;20284;-74
2022/11/06 09:08:25;;;;;;;;;;;9.10;99.90;;;;;;5068390;28;19960;-74
2022/11/06 09:10:50;;;;;;;;;;;9.00;99.90;;;;;;5066523;28;19912;-74
2022/11/06 09:13:16;;;;;;;;;;;9.30;99.90;;;;;;5063345;28;20750;-74
2022/11/06 09:15:41;;;;;;;;;;;9.30;99.90;;;;;;5050109;28;19975;-75
2022/11/06 09:18:09;;;;;;;;;;;9.50;99.90;;;;;;5081571;28;19912;-75
2022/11/06 09:20:34;;;;;;;;;;;9.60;99.90;;;;;;5056243;28;19913;-75
2022/11/06 09:23:04;;;;;;;;;;;9.60;99.90;;;;;;5067914;28;19912;-75
2022/11/06 09:25:29;;;;;;;;;;;9.60;99.90;;;;;;5050421;28;19913;-74
2022/11/06 09:27:55;;;;;;;;;;;9.80;99.90;;;;;;5050693;28;19921;-75
2022/11/06 09:30:21;;;;;;;;;;;9.80;99.90;;;;;;5053306;28;20312;-74
2022/11/06 09:32:51;;;;;;;;;;;9.80;99.90;;;;;;5049708;28;19913;-74
2022/11/06 09:35:17;;;;;;;;;;;9.80;99.90;;;;;;5064340;28;19952;-74
2022/11/06 09:37:43;;;;;;;;;;;9.90;99.90;;;;;;5071580;28;19912;-75
2022/11/06 09:40:29;;;;;;;;;;;9.90;99.50;;;;;;5055387;28;20300;-75
2022/11/06 09:43:16;;;;;;;;;;;10.60;99.50;;;;;;5066050;28;19924;-75
2022/11/06 09:45:42;;;;;;;;;;;11.20;97.90;;;;;;5054248;28;19919;-75
2022/11/06 09:48:07;;;;;;;;;;;11.30;98.10;;;;;;5056509;28;19916;-73
2022/11/06 09:50:35;;;;;;;;;;;11.10;96.60;;;;;;5066066;28;19917;-74
2022/11/06 09:53:06;;;;;;;;;;;10.90;97.10;;;;;;5063001;28;19944;-74
2022/11/06 09:55:39;;;;;;;;;;;11.20;98.80;;;;;;5067857;28;19912;-75
2022/11/06 09:58:10;;;;;;;;;;;11.20;97.70;;;;;;5067421;28;19916;-74
2022/11/06 10:00:37;;;;;;;;;;;11.30;99.60;;;;;;5065781;28;19951;-75
2022/11/06 10:03:04;;;;;;;;;;;11.30;99.90;;;;;;5061405;28;19916;-74
2022/11/06 10:05:32;;;;;;;;;;;11.30;99.20;;;;;;5071468;28;19922;-74
2022/11/06 10:08:02;;;;;;;;;;;11.40;97.70;;;;;;5071598;28;20690;-74
2022/11/06 10:10:48;;;;;;;;;;;11.20;97.30;;;;;;5071876;28;19912;-75
2022/11/06 10:13:19;;;;;;;;;;;11.10;97.20;;;;;;5066609;28;20007;-77
2022/11/06 10:15:54;;;;;;;;;;;11.40;98.50;;;;;;5072007;28;19919;-74
2022/11/06 10:18:38;;;;;;;;;;;11.60;97.20;;;;;;5071198;28;20019;-75
2022/11/06 10:21:14;;;;;;;;;;;11.70;96.70;;;;;;5062256;28;20674;-75
2022/11/06 10:24:06;;;;;;;;;;;11.60;97.40;;;;;;5065607;28;19916;-75
2022/11/06 10:26:37;;;;;;;;;;;11.80;97.90;;;;;;5058238;28;19912;-75
2022/11/06 10:29:17;;;;;;;;;;;12.00;98.50;;;;;;5070832;28;20327;-75
2022/11/06 10:31:55;;;;;;;;;;;12.20;98.80;;;;;;5069762;28;19916;-75
2022/11/06 10:34:30;;;;;;;;;;;12.50;99.10;;;;;;5052857;28;19935;-74
2022/11/06 10:36:59;;;;;;;;;;;13.00;99.30;;;;;;5055480;28;20551;-75
2022/11/06 10:39:28;;;;;;;;;;;13.00;97.40;;;;;;5066297;28;20451;-75
2022/11/06 10:42:05;;;;;;;;;;;13.60;94.50;;;;;;5070426;28;19912;-75
2022/11/06 10:44:45;;;;;;;;;;;13.90;92.50;;;;;;5068075;28;20050;-75
2022/11/06 10:47:18;;;;;;;;;;;13.80;91.20;;;;;;5063681;28;20454;-75
2022/11/06 10:49:48;;;;;;;;;;;13.60;90.00;;;;;;5069562;28;19913;-75
2022/11/06 10:52:20;;;;;;;;;;;13.20;88.00;;;;;;5068984;28;19927;-75
2022/11/06 10:54:46;;;;;;;;;;;13.20;85.40;;;;;;5066518;28;19925;-75
2022/11/06 10:57:15;;;;;;;;;;;13.30;87.30;;;;;;5070572;28;20371;-75
2022/11/06 10:59:41;;;;;;;;;;;13.40;90.00;;;;;;5086229;28;19912;-75
2022/11/06 11:02:35;;;;;;;;;;;13.40;93.30;;;;;;5070570;28;19916;-74
2022/11/06 11:05:01;;;;;;;;;;;13.30;91.50;;;;;;5055454;28;20023;-75
2022/11/06 11:07:30;;;;;;;;;;;13.70;85.30;;;;;;5070396;28;19980;-75
2022/11/06 11:09:56;;;;;;;;;;;14.10;91.60;;;;;;5069299;28;19920;-75
2022/11/06 11:12:24;;;;;;;;;;;14.20;88.60;;;;;;5068918;28;19923;-75
2022/11/06 11:15:10;;;;;;;;;;;14.40;90.90;;;;;;5066249;28;19913;-75
2022/11/06 11:17:36;;;;;;;;;;;14.40;89.10;;;;;;5065720;28;19916;-75
2022/11/06 11:20:02;;;;;;;;;;;14.50;88.70;;;;;;5065501;28;19917;-75
2022/11/06 11:22:28;;;;;;;;;;;14.40;85.10;;;;;;5059317;28;19940;-74
2022/11/06 11:25:01;;;;;;;;;;;14.40;82.40;;;;;;5059007;28;19917;-75
2022/11/06 11:27:41;;;;;;;;;;;14.30;80.40;;;;;;5066817;28;19924;-75
2022/11/06 11:30:18;;;;;;;;;;;14.30;80.00;;;;;;5068891;28;19920;-74
2022/11/06 11:32:43;;;;;;;;;;;14.20;79.10;;;;;;5060753;28;19924;-75
2022/11/06 11:35:10;;;;;;;;;;;14.20;80.20;;;;;;5065225;28;20392;-77
2022/11/06 11:37:35;;;;;;;;;;;14.10;78.90;;;;;;5058678;28;19943;-76
2022/11/06 11:40:23;;;;;;;;;;;14.10;79.90;;;;;;5058760;28;19916;-75
2022/11/06 11:42:48;;;;;;;;;;;14.00;79.60;;;;;;5069885;28;19917;-75
2022/11/06 11:45:16;;;;;;;;;;;13.80;78.60;;;;;;5067669;28;19927;-75
2022/11/06 11:47:50;;;;;;;;;;;13.90;78.60;;;;;;5068989;28;19930;-75
2022/11/06 11:50:15;;;;;;;;;;;14.10;77.00;;;;;;5069191;28;20490;-75
2022/11/06 11:52:42;;;;;;;;;;;14.20;79.60;;;;;;5067824;28;20042;-74
2022/11/06 11:55:14;;;;;;;;;;;14.20;80.60;;;;;;5058187;28;19950;-75
2022/11/06 11:57:41;;;;;;;;;;;14.20;81.00;;;;;;5065403;28;20414;-76
2022/11/06 12:00:13;;;;;;;;;;;14.20;77.40;;;;;;5069497;28;19917;-75
2022/11/06 12:02:44;;;;;;;;;;;14.20;78.00;;;;;;5062679;28;19920;-76
2022/11/06 12:05:12;;;;;;;;;;;14.30;80.70;;;;;;5069248;28;19920;-74
2022/11/06 12:07:42;;;;;;;;;;;14.40;77.10;;;;;;5068687;28;20665;-75
2022/11/06 12:10:26;;;;;;;;;;;14.40;78.30;;;;;;5067989;28;19917;-76
2022/11/06 12:12:52;;;;;;;;;;;14.40;75.30;;;;;;5065833;28;19920;-76
2022/11/06 12:15:21;;;;;;;;;;;14.20;77.10;;;;;;5067497;28;19955;-77
2022/11/06 12:17:51;;;;;;;;;;;14.10;78.90;;;;;;5068278;28;20004;-75
2022/11/06 12:20:18;;;;;;;;;;;14.10;78.10;;;;;;5065979;28;19992;-75
2022/11/06 12:22:45;;;;;;;;;;;14.00;76.30;;;;;;5068034;28;19917;-76
2022/11/06 12:25:24;;;;;;;;;;;14.00;77.80;;;;;;5068068;28;19917;-75
2022/11/06 12:27:51;;;;;;;;;;;14.00;76.60;;;;;;5068167;28;19928;-75
2022/11/06 12:30:17;;;;;;;;;;;13.80;80.00;;;;;;5067521;28;19938;-75
2022/11/06 12:32:47;;;;;;;;;;;13.90;82.30;;;;;;5068372;28;19924;-75
2022/11/06 12:35:13;;;;;;;;;;;14.00;82.10;;;;;;5062354;28;19964;-75
2022/11/06 12:37:54;;;;;;;;;;;14.10;79.90;;;;;;5065393;28;20535;-76
2022/11/06 12:40:21;;;;;;;;;;;14.20;77.70;;;;;;5068142;28;19982;-75
2022/11/06 12:42:59;;;;;;;;;;;14.30;79.30;;;;;;5066880;28;19927;-76
2022/11/06 12:45:31;;;;;;;;;;;14.30;76.60;;;;;;5063990;28;19920;-76
2022/11/06 12:48:02;;;;;;;;;;;14.40;77.90;;;;;;5063658;28;20514;-75
2022/11/06 12:50:41;;;;;;;;;;;14.20;73.20;;;;;;5067174;28;19922;-75
2022/11/06 12:53:06;;;;;;;;;;;14.30;73.60;;;;;;5064814;28;19917;-74
2022/11/06 12:55:33;;;;;;;;;;;14.50;75.30;;;;;;5067081;28;20019;-75
2022/11/06 12:58:14;;;;;;;;;;;14.30;71.20;;;;;;5066215;28;19927;-76
2022/11/06 13:00:54;;;;;;;;;;;14.30;71.00;;;;;;5065255;28;19931;-75
2022/11/06 13:03:20;;;;;;;;;;;14.20;70.70;;;;;;5063322;28;19923;-75
2022/11/06 13:05:54;;;;;;;;;;;14.30;73.60;;;;;;5064935;28;19924;-75
2022/11/06 13:08:26;;;;;;;;;;;14.50;74.30;;;;;;5062400;28;20625;-76
2022/11/06 13:10:53;;;;;;;;;;;14.60;73.30;;;;;;5065822;28;20414;-75
2022/11/06 13:13:18;;;;;;;;;;;14.60;76.10;;;;;;5067459;28;19920;-76
2022/11/06 13:16:08;;;;;;;;;;;14.60;76.00;;;;;;5067869;28;19920;-76
2022/11/06 13:18:38;;;;;;;;;;;14.60;78.90;;;;;;5061093;28;20507;-76
2022/11/06 13:21:16;;;;;;;;;;;14.40;79.00;;;;;;5067607;28;19917;-77
2022/11/06 13:23:49;;;;;;;;;;;14.10;79.20;;;;;;5093504;28;20014;-75
2022/11/06 13:26:21;;;;;;;;;;;14.00;78.00;;;;;;5061183;28;19916;-76
2022/11/06 13:28:48;;;;;;;;;;;14.00;81.90;;;;;;5066267;28;20601;-75
2022/11/06 13:31:17;;;;;;;;;;;14.00;81.50;;;;;;5064752;28;19916;-75
2022/11/06 13:33:47;;;;;;;;;;;14.40;82.80;;;;;;5065725;28;19923;-75
2022/11/06 13:36:14;;;;;;;;;;;14.50;82.10;;;;;;5063776;28;20720;-76
2022/11/06 13:38:51;;;;;;;;;;;14.60;83.00;;;;;;5066013;28;19916;-77
2022/11/06 13:41:26;;;;;;;;;;;14.60;84.00;;;;;;5065701;28;20598;-77
2022/11/06 13:43:55;;;;;;;;;;;14.60;83.60;;;;;;5062224;28;20261;-77
2022/11/06 13:46:26;;;;;;;;;;;14.40;85.50;;;;;;5065027;28;20311;-77
2022/11/06 13:48:59;;;;;;;;;;;14.60;88.00;;;;;;5055586;28;20413;-77
2022/11/06 13:51:40;;;;;;;;;;;14.80;85.90;;;;;;5048919;28;19921;-77
2022/11/06 13:54:09;;;;;;;;;;;15.00;81.30;;;;;;5061206;28;19927;-77
2022/11/06 13:56:53;;;;;;;;;;;15.20;80.60;;;;;;5061243;28;19962;-76
2022/11/06 13:59:37;;;;;;;;;;;15.10;81.60;;;;;;5055111;28;19923;-77
2022/11/06 14:02:06;;;;;;;;;;;14.60;82.80;;;;;;5052102;28;19920;-76
2022/11/06 14:04:42;;;;;;;;;;;14.20;85.00;;;;;;5062725;28;20367;-77
2022/11/06 14:07:08;;;;;;;;;;;14.10;86.20;;;;;;5060767;28;19943;-77
2022/11/06 14:09:34;;;;;;;;;;;14.20;87.50;;;;;;5054874;28;19980;-77
2022/11/06 14:12:02;;;;;;;;;;;14.30;88.10;;;;;;5057752;28;19985;-77
2022/11/06 14:14:29;;;;;;;;;;;14.40;88.40;;;;;;5056586;28;19913;-77
2022/11/06 14:17:04;;;;;;;;;;;14.40;88.90;;;;;;5059932;28;19951;-77
2022/11/06 14:19:29;;;;;;;;;;;14.40;87.40;;;;;;5059478;28;19923;-76
2022/11/06 14:22:07;;;;;;;;;;;14.50;87.30;;;;;;5050763;28;19921;-76
2022/11/06 14:24:36;;;;;;;;;;;14.50;88.50;;;;;;5073463;28;19956;-76
2022/11/06 14:27:05;;;;;;;;;;;14.70;85.10;;;;;;5058704;28;19913;-77
2022/11/06 14:29:31;;;;;;;;;;;14.70;85.40;;;;;;5060842;28;19923;-77
2022/11/06 14:31:59;;;;;;;;;;;14.60;84.20;;;;;;5065378;28;19920;-76
2022/11/06 14:34:25;;;;;;;;;;;14.40;85.50;;;;;;5056932;28;19916;-77
2022/11/06 14:36:51;;;;;;;;;;;14.30;84.10;;;;;;5058076;28;19964;-77
2022/11/06 14:39:36;;;;;;;;;;;14.30;84.60;;;;;;5059579;28;20422;-76
2022/11/06 14:42:02;;;;;;;;;;;14.30;84.60;;;;;;5057651;28;19917;-76
2022/11/06 14:44:31;;;;;;;;;;;14.20;81.10;;;;;;5061727;28;19924;-77
2022/11/06 14:47:02;;;;;;;;;;;14.20;82.40;;;;;;5059639;28;19934;-77
2022/11/06 14:49:35;;;;;;;;;;;14.10;82.60;;;;;;5063655;28;20478;-77